Time;durP1;ratioP1;P1;durP2;ratioP2;P2;SDS_P1;SDS_P2;PMS_P1;PMS_P2;Temp;Humidity;BMP_temperature;BMP_pressure;BME280_temperature;BME280_humidity;BME280_pressure;Samples;Min_cycle;Max_cycle;Signal;HPM_P1;HPM_P2
2021/09/02 00:00:39;;;;;;;8.13;4.60;;;24.60;55.30;;;;;;5052803;28;20031;-67
2021/09/02 00:03:05;;;;;;;9.13;4.47;;;24.60;54.60;;;;;;5053062;28;20108;-65
2021/09/02 00:05:31;;;;;;;7.82;4.30;;;24.50;54.00;;;;;;5052606;28;20056;-66
2021/09/02 00:07:57;;;;;;;9.18;3.70;;;24.40;54.40;;;;;;5053089;28;20025;-67
2021/09/02 00:10:22;;;;;;;6.30;3.80;;;24.40;54.60;;;;;;5034898;28;20090;-66
2021/09/02 00:12:48;;;;;;;6.57;4.07;;;24.30;54.60;;;;;;5053120;28;20067;-66
2021/09/02 00:15:14;;;;;;;10.98;3.80;;;24.30;54.80;;;;;;5052593;28;20092;-65
2021/09/02 00:17:40;;;;;;;11.07;3.78;;;24.20;55.40;;;;;;5052998;28;20036;-66
2021/09/02 00:20:06;;;;;;;7.55;3.47;;;24.20;55.10;;;;;;5052725;28;20070;-65
2021/09/02 00:22:32;;;;;;;10.07;3.35;;;24.20;55.10;;;;;;5052836;28;20033;-65
2021/09/02 00:24:58;;;;;;;9.52;3.22;;;24.20;55.80;;;;;;5052366;28;20021;-66
2021/09/02 00:27:24;;;;;;;8.60;3.30;;;24.20;55.30;;;;;;5051689;28;20033;-68
2021/09/02 00:29:49;;;;;;;16.45;3.10;;;24.10;55.10;;;;;;5052582;28;20024;-67
2021/09/02 00:32:17;;;;;;;5.53;3.17;;;24.10;55.50;;;;;;5052069;28;20059;-65
2021/09/02 00:34:44;;;;;;;9.93;3.20;;;24.10;55.10;;;;;;5052340;28;20199;-66
2021/09/02 00:37:10;;;;;;;8.55;3.42;;;24.10;55.90;;;;;;5052625;28;20083;-66
2021/09/02 00:39:35;;;;;;;6.43;2.85;;;24.00;56.10;;;;;;5052612;28;20033;-65
2021/09/02 00:42:01;;;;;;;8.02;2.88;;;24.00;55.60;;;;;;5052563;28;20498;-66
2021/09/02 00:44:40;;;;;;;6.55;3.00;;;24.00;55.90;;;;;;5051573;28;20075;-64
2021/09/02 00:47:11;;;;;;;7.18;2.80;;;24.00;56.10;;;;;;5052300;28;20031;-65
2021/09/02 00:49:38;;;;;;;7.28;3.10;;;24.00;55.50;;;;;;5052563;28;20029;-66
2021/09/02 00:52:10;;;;;;;8.13;3.15;;;23.90;56.10;;;;;;5052810;28;20525;-65
2021/09/02 00:54:37;;;;;;;6.25;2.67;;;23.90;56.30;;;;;;5054807;28;20543;-65
2021/09/02 00:57:03;;;;;;;7.25;2.85;;;23.90;56.40;;;;;;5055386;28;20029;-65
2021/09/02 00:59:29;;;;;;;8.35;2.75;;;23.80;56.30;;;;;;5056268;28;20029;-65
2021/09/02 01:01:54;;;;;;;7.40;3.10;;;23.70;56.50;;;;;;5056081;28;20024;-66
2021/09/02 01:04:22;;;;;;;6.10;2.85;;;23.70;56.50;;;;;;5055747;28;20029;-68
2021/09/02 01:06:49;;;;;;;7.18;3.00;;;23.70;56.50;;;;;;5055371;28;20048;-67
2021/09/02 01:09:16;;;;;;;6.18;2.95;;;23.70;56.90;;;;;;5055442;28;20031;-67
2021/09/02 01:11:42;;;;;;;5.60;3.08;;;23.70;56.70;;;;;;5055548;28;20163;-65
2021/09/02 01:14:07;;;;;;;7.50;3.15;;;23.70;56.70;;;;;;5055641;28;20053;-65
2021/09/02 01:16:33;;;;;;;6.90;2.90;;;23.70;56.60;;;;;;5055568;28;20028;-66
2021/09/02 01:18:59;;;;;;;5.18;2.65;;;23.70;57.00;;;;;;5055879;28;20458;-66
2021/09/02 01:21:24;;;;;;;4.75;3.00;;;23.70;56.90;;;;;;5055895;28;20025;-65
2021/09/02 01:23:50;;;;;;;8.50;3.05;;;23.70;57.00;;;;;;5037677;28;20025;-65
2021/09/02 01:26:17;;;;;;;7.90;3.60;;;23.70;56.90;;;;;;5055465;28;20028;-65
2021/09/02 01:28:43;;;;;;;4.88;3.00;;;23.60;56.90;;;;;;5055347;28;20048;-65
2021/09/02 01:31:13;;;;;;;7.72;3.00;;;23.60;56.90;;;;;;5055302;28;20116;-67
2021/09/02 01:33:44;;;;;;;5.72;2.90;;;23.60;56.90;;;;;;5055509;28;20524;-65
2021/09/02 01:36:10;;;;;;;6.32;3.00;;;23.60;56.80;;;;;;5055072;28;20079;-64
2021/09/02 01:38:37;;;;;;;5.75;2.90;;;23.70;56.70;;;;;;5054839;28;20029;-66
2021/09/02 01:41:03;;;;;;;6.63;2.63;;;23.70;56.70;;;;;;5055189;28;20064;-65
2021/09/02 01:43:28;;;;;;;5.85;2.70;;;23.60;56.70;;;;;;5055348;28;20017;-65
2021/09/02 01:45:54;;;;;;;6.65;2.95;;;23.60;56.60;;;;;;5055183;28;20025;-67
2021/09/02 01:48:20;;;;;;;5.35;2.45;;;23.60;56.50;;;;;;5054543;28;20112;-66
2021/09/02 01:50:46;;;;;;;6.25;2.50;;;23.60;56.50;;;;;;5055078;28;20036;-65
2021/09/02 01:53:14;;;;;;;5.28;2.75;;;23.60;56.50;;;;;;5053994;28;20385;-66
2021/09/02 01:55:40;;;;;;;5.22;2.67;;;23.60;56.50;;;;;;5055208;28;20025;-66
2021/09/02 01:58:06;;;;;;;6.10;2.83;;;23.50;56.40;;;;;;5054370;28;20033;-67
2021/09/02 02:00:34;;;;;;;7.22;2.75;;;23.40;56.50;;;;;;5054964;28;20040;-65
2021/09/02 02:03:00;;;;;;;5.53;2.65;;;23.40;56.80;;;;;;5054119;28;20021;-67
2021/09/02 02:05:26;;;;;;;5.75;2.60;;;23.50;56.70;;;;;;5053860;28;20051;-65
2021/09/02 02:07:52;;;;;;;7.30;2.92;;;23.50;56.50;;;;;;5037045;28;20028;-66
2021/09/02 02:10:22;;;;;;;5.57;2.50;;;23.50;56.30;;;;;;5054033;28;20028;-64
2021/09/02 02:12:48;;;;;;;4.18;2.50;;;23.50;56.30;;;;;;5054488;28;20026;-65
2021/09/02 02:15:14;;;;;;;4.57;2.47;;;23.50;56.10;;;;;;5054600;28;20075;-65
2021/09/02 02:17:41;;;;;;;4.75;2.35;;;23.50;56.30;;;;;;5054398;28;20031;-65
2021/09/02 02:20:08;;;;;;;8.52;3.00;;;23.50;56.20;;;;;;5054713;28;20033;-65
2021/09/02 02:22:34;;;;;;;4.72;2.35;;;23.50;56.00;;;;;;5054286;28;20386;-64
2021/09/02 02:25:00;;;;;;;4.80;2.38;;;23.50;56.20;;;;;;5053716;28;20039;-65
2021/09/02 02:27:26;;;;;;;5.85;2.40;;;23.50;56.40;;;;;;5054353;28;20099;-64
2021/09/02 02:29:52;;;;;;;5.65;2.63;;;23.50;56.20;;;;;;5054300;28;20497;-64
2021/09/02 02:32:17;;;;;;;8.25;2.50;;;23.50;56.30;;;;;;5054349;28;20112;-65
2021/09/02 02:34:43;;;;;;;6.15;2.60;;;23.50;56.30;;;;;;5054050;28;20024;-65
2021/09/02 02:37:09;;;;;;;4.45;2.28;;;23.50;56.50;;;;;;5053690;28;20108;-65
2021/09/02 02:39:38;;;;;;;5.45;2.80;;;23.50;56.50;;;;;;5054219;28;20032;-65
2021/09/02 02:42:06;;;;;;;5.18;2.47;;;23.40;56.50;;;;;;5053982;28;20090;-65
2021/09/02 02:44:32;;;;;;;4.80;2.55;;;23.50;56.60;;;;;;5054050;28;20017;-64
2021/09/02 02:46:58;;;;;;;5.18;2.30;;;23.50;56.80;;;;;;5054199;28;20025;-65
2021/09/02 02:49:23;;;;;;;6.20;2.45;;;23.50;56.50;;;;;;5054155;28;20545;-65
2021/09/02 02:51:49;;;;;;;9.75;2.85;;;23.50;56.50;;;;;;5053833;28;20029;-66
2021/09/02 02:54:15;;;;;;;5.22;2.30;;;23.40;56.60;;;;;;5053954;28;20025;-66
2021/09/02 02:56:40;;;;;;;7.30;2.88;;;23.40;56.90;;;;;;5035966;28;20025;-65
2021/09/02 02:59:06;;;;;;;5.28;2.50;;;23.30;56.70;;;;;;5054088;28;20028;-66
2021/09/02 03:01:32;;;;;;;8.93;3.75;;;23.20;56.80;;;;;;5053739;28;20386;-64
2021/09/02 03:03:57;;;;;;;5.35;2.35;;;23.20;57.00;;;;;;5053663;28;20082;-66
2021/09/02 03:06:23;;;;;;;5.22;2.42;;;23.20;57.10;;;;;;5053697;28;20051;-65
2021/09/02 03:08:49;;;;;;;9.73;2.38;;;23.10;57.00;;;;;;5052526;28;20071;-65
2021/09/02 03:11:14;;;;;;;8.93;2.60;;;23.10;57.20;;;;;;5053418;28;20028;-65
2021/09/02 03:13:41;;;;;;;3.97;2.20;;;23.00;57.30;;;;;;5054059;28;20060;-65
2021/09/02 03:16:07;;;;;;;6.28;2.60;;;23.00;57.20;;;;;;5052860;28;20025;-64
2021/09/02 03:18:32;;;;;;;4.68;2.58;;;23.00;57.30;;;;;;5034365;28;20029;-65
2021/09/02 03:20:58;;;;;;;4.53;2.30;;;23.00;57.20;;;;;;5053600;28;20048;-66
2021/09/02 03:23:24;;;;;;;5.63;2.42;;;22.90;57.10;;;;;;5053428;28;20075;-66
2021/09/02 03:25:50;;;;;;;8.65;2.83;;;22.90;57.20;;;;;;5052857;28;20036;-65
2021/09/02 03:28:16;;;;;;;5.45;2.67;;;22.90;57.00;;;;;;5052526;28;20025;-65
2021/09/02 03:30:41;;;;;;;4.68;2.35;;;22.90;57.00;;;;;;5053055;28;20544;-66
2021/09/02 03:33:07;;;;;;;5.65;2.28;;;22.90;56.90;;;;;;5035239;28;20029;-65
2021/09/02 03:35:33;;;;;;;5.55;2.63;;;23.00;57.10;;;;;;5052674;28;20047;-66
2021/09/02 03:37:58;;;;;;;5.25;2.35;;;23.00;56.80;;;;;;5052863;28;20025;-65
2021/09/02 03:40:24;;;;;;;5.32;2.00;;;23.00;56.90;;;;;;5052872;28;20027;-65
2021/09/02 03:42:50;;;;;;;8.10;2.35;;;23.00;56.70;;;;;;5052942;28;20033;-65
2021/09/02 03:45:15;;;;;;;6.05;2.40;;;23.00;56.90;;;;;;5053187;28;20025;-66
2021/09/02 03:47:48;;;;;;;7.50;2.40;;;23.00;56.70;;;;;;5053302;28;20060;-66
2021/09/02 03:50:14;;;;;;;6.90;2.22;;;23.00;56.60;;;;;;5052638;28;20025;-66
2021/09/02 03:52:40;;;;;;;5.55;2.60;;;22.90;56.60;;;;;;5053190;28;20056;-67
2021/09/02 03:55:06;;;;;;;6.85;2.13;;;22.90;56.80;;;;;;5052869;28;20051;-65
2021/09/02 03:57:32;;;;;;;4.25;2.30;;;22.90;57.00;;;;;;5053122;28;20486;-65
2021/09/02 03:59:58;;;;;;;6.68;2.13;;;23.00;57.10;;;;;;5053314;28;20108;-66
2021/09/02 04:02:23;;;;;;;5.55;2.38;;;23.00;57.00;;;;;;5052951;28;20025;-65
2021/09/02 04:04:49;;;;;;;7.40;2.50;;;23.00;56.90;;;;;;5052900;28;20057;-66
2021/09/02 04:07:15;;;;;;;6.15;2.53;;;22.90;57.20;;;;;;5051998;28;20052;-65
2021/09/02 04:09:40;;;;;;;5.00;2.35;;;22.90;57.20;;;;;;5052619;28;20446;-65
2021/09/02 04:12:06;;;;;;;7.20;2.25;;;22.90;57.10;;;;;;5053019;28;20048;-66
2021/09/02 04:14:32;;;;;;;6.97;2.20;;;22.90;57.40;;;;;;5052947;28;20048;-65
2021/09/02 04:16:58;;;;;;;5.38;2.13;;;22.80;57.40;;;;;;5052475;28;20054;-65
2021/09/02 04:19:24;;;;;;;5.57;2.05;;;22.80;57.50;;;;;;5051678;28;20028;-65
2021/09/02 04:21:51;;;;;;;8.07;2.60;;;22.80;57.50;;;;;;5053091;28;20021;-66
2021/09/02 04:24:17;;;;;;;6.03;2.40;;;22.60;57.60;;;;;;5052491;28;20048;-66
2021/09/02 04:26:43;;;;;;;4.22;2.00;;;22.60;57.90;;;;;;5053384;28;20351;-67
2021/09/02 04:29:09;;;;;;;5.45;2.70;;;22.70;58.10;;;;;;5038916;28;20426;-65
2021/09/02 04:31:35;;;;;;;6.63;2.22;;;22.70;57.80;;;;;;5056494;28;20033;-64
2021/09/02 04:34:00;;;;;;;6.85;2.42;;;22.70;57.70;;;;;;5038549;28;20348;-66
2021/09/02 04:36:26;;;;;;;5.40;2.50;;;22.70;57.90;;;;;;5056385;28;20113;-64
2021/09/02 04:38:52;;;;;;;8.90;2.50;;;22.70;57.90;;;;;;5056569;28;20017;-65
2021/09/02 04:41:17;;;;;;;4.60;2.50;;;22.70;58.00;;;;;;5056503;28;20096;-65
2021/09/02 04:43:43;;;;;;;4.85;2.15;;;22.70;58.00;;;;;;5056276;28;20021;-66
2021/09/02 04:46:11;;;;;;;7.57;2.47;;;22.70;58.00;;;;;;5038282;28;20035;-65
2021/09/02 04:48:38;;;;;;;4.03;2.35;;;22.60;58.20;;;;;;5055848;28;20020;-65
2021/09/02 04:51:03;;;;;;;6.15;2.65;;;22.60;58.20;;;;;;5055850;28;20037;-66
2021/09/02 04:53:29;;;;;;;13.43;2.90;;;22.60;58.00;;;;;;5055072;28;20352;-64
2021/09/02 04:55:55;;;;;;;8.40;3.00;;;22.70;58.00;;;;;;5055699;28;20021;-64
2021/09/02 04:58:21;;;;;;;5.80;2.67;;;22.70;57.90;;;;;;5056089;28;20021;-65
2021/09/02 05:00:47;;;;;;;7.25;2.55;;;22.70;57.90;;;;;;5055876;28;20487;-66
2021/09/02 05:03:13;;;;;;;4.60;2.33;;;22.70;58.00;;;;;;5056296;28;20025;-67
2021/09/02 05:05:39;;;;;;;11.25;3.38;;;22.80;57.90;;;;;;5055318;28;20041;-66
2021/09/02 05:08:06;;;;;;;5.18;2.72;;;22.80;57.90;;;;;;5055776;28;20435;-66
2021/09/02 05:10:32;;;;;;;5.50;2.60;;;22.80;57.90;;;;;;5055756;28;20083;-65
2021/09/02 05:12:58;;;;;;;5.60;2.70;;;22.80;58.00;;;;;;5055617;28;20029;-66
2021/09/02 05:15:24;;;;;;;4.75;2.42;;;22.80;57.70;;;;;;5055481;28;20028;-64
2021/09/02 05:17:50;;;;;;;6.65;2.65;;;22.80;57.70;;;;;;5055793;28;20021;-64
2021/09/02 05:20:16;;;;;;;7.45;2.63;;;22.90;57.90;;;;;;5055746;28;20025;-65
2021/09/02 05:22:43;;;;;;;8.05;2.72;;;22.90;57.80;;;;;;5055860;28;20060;-65
2021/09/02 05:25:10;;;;;;;6.50;2.80;;;22.90;57.60;;;;;;5055407;28;20021;-66
2021/09/02 05:27:37;;;;;;;6.18;2.60;;;22.90;57.60;;;;;;5055556;28;20033;-65
2021/09/02 05:30:06;;;;;;;5.82;2.53;;;23.00;57.60;;;;;;5055525;28;20087;-65
2021/09/02 05:32:31;;;;;;;5.63;2.65;;;23.00;57.20;;;;;;5055474;28;20041;-65
2021/09/02 05:34:57;;;;;;;7.97;2.95;;;23.00;57.40;;;;;;5055185;28;20087;-68
2021/09/02 05:37:23;;;;;;;7.53;2.40;;;23.00;57.80;;;;;;5037242;28;20025;-65
2021/09/02 05:39:48;;;;;;;8.32;2.70;;;23.00;57.50;;;;;;5055080;28;20032;-68
2021/09/02 05:42:14;;;;;;;5.82;2.60;;;23.00;57.70;;;;;;5055061;28;20067;-66
2021/09/02 05:44:40;;;;;;;5.28;2.53;;;23.10;57.70;;;;;;5054818;28;20481;-68
2021/09/02 05:47:06;;;;;;;9.38;2.50;;;23.20;57.10;;;;;;5055380;28;20029;-67
2021/09/02 05:49:32;;;;;;;10.48;2.40;;;23.30;56.90;;;;;;5054304;28;20096;-68
2021/09/02 05:51:57;;;;;;;3.95;2.20;;;23.40;56.60;;;;;;5054246;28;20163;-65
2021/09/02 05:54:24;;;;;;;5.30;2.45;;;23.50;56.40;;;;;;5036557;28;20466;-68
2021/09/02 05:56:49;;;;;;;5.45;2.70;;;23.70;56.40;;;;;;5054635;28;20054;-69
2021/09/02 05:59:15;;;;;;;5.43;2.30;;;23.60;56.30;;;;;;5054264;28;20100;-68
2021/09/02 06:01:41;;;;;;;8.55;2.72;;;23.60;56.20;;;;;;5054800;28;20052;-68
2021/09/02 06:04:07;;;;;;;8.43;2.67;;;23.50;56.30;;;;;;5054535;28;20017;-67
2021/09/02 06:06:33;;;;;;;5.55;3.15;;;23.50;56.40;;;;;;5054330;28;20556;-66
2021/09/02 06:08:58;;;;;;;8.07;2.83;;;23.50;56.50;;;;;;5052948;28;20443;-68
2021/09/02 06:11:24;;;;;;;6.63;3.25;;;23.40;56.60;;;;;;5033966;28;20116;-67
2021/09/02 06:13:50;;;;;;;7.63;3.40;;;23.50;56.40;;;;;;5034337;28;20022;-66
2021/09/02 06:16:15;;;;;;;6.72;3.22;;;23.50;56.40;;;;;;5034262;28;20364;-66
2021/09/02 06:18:41;;;;;;;9.93;2.90;;;23.70;56.10;;;;;;5034099;28;20025;-67
2021/09/02 06:21:07;;;;;;;6.95;2.92;;;24.00;55.50;;;;;;5047257;28;20429;-66
2021/09/02 06:23:33;;;;;;;6.05;2.78;;;24.30;54.90;;;;;;5036174;28;20021;-65
2021/09/02 06:25:58;;;;;;;8.32;3.20;;;24.50;53.90;;;;;;5054064;28;20052;-66
2021/09/02 06:28:24;;;;;;;9.82;3.20;;;24.70;53.30;;;;;;5053884;28;20040;-69
2021/09/02 06:30:50;;;;;;;13.25;3.17;;;24.70;53.10;;;;;;5054002;28;20037;-67
2021/09/02 06:33:16;;;;;;;8.40;3.58;;;24.90;53.10;;;;;;5053781;28;20066;-67
2021/09/02 06:35:41;;;;;;;6.60;3.10;;;25.00;52.30;;;;;;5036220;28;20048;-67
2021/09/02 06:38:08;;;;;;;5.50;3.20;;;25.30;51.80;;;;;;5053880;28;20021;-68
2021/09/02 06:40:34;;;;;;;8.00;2.70;;;25.50;51.40;;;;;;5053386;28;20028;-67
2021/09/02 06:43:00;;;;;;;8.77;2.95;;;25.70;50.80;;;;;;5036214;28;20135;-68
2021/09/02 06:45:26;;;;;;;6.20;2.53;;;25.90;51.40;;;;;;5034968;28;20485;-68
2021/09/02 06:47:52;;;;;;;10.60;3.20;;;26.10;50.40;;;;;;5053492;28;20021;-68
2021/09/02 06:50:18;;;;;;;11.27;3.05;;;26.40;50.80;;;;;;5052561;28;20334;-69
2021/09/02 06:52:44;;;;;;;6.50;2.78;;;26.50;49.80;;;;;;5053265;28;20037;-70
2021/09/02 06:55:11;;;;;;;9.52;3.00;;;26.60;49.60;;;;;;5053335;28;20335;-69
2021/09/02 06:57:37;;;;;;;10.93;2.88;;;26.60;49.50;;;;;;5037806;28;20056;-69
2021/09/02 07:00:07;;;;;;;10.75;3.10;;;26.60;49.50;;;;;;5033203;28;20052;-67
2021/09/02 07:02:36;;;;;;;10.98;2.97;;;26.70;49.50;;;;;;5035723;28;20471;-67
2021/09/02 07:05:06;;;;;;;12.13;4.00;;;26.80;49.70;;;;;;5033032;28;20033;-67
2021/09/02 07:07:31;;;;;;;6.78;2.53;;;27.00;49.60;;;;;;5032858;28;20025;-67
2021/09/02 07:09:57;;;;;;;12.07;3.92;;;27.00;49.00;;;;;;5032396;28;20109;-66
2021/09/02 07:12:23;;;;;;;9.43;4.32;;;26.80;49.00;;;;;;5033189;28;20021;-67
2021/09/02 07:14:48;;;;;;;8.27;3.10;;;26.70;49.00;;;;;;5033215;28;20026;-66
2021/09/02 07:17:14;;;;;;;12.05;4.05;;;26.70;49.20;;;;;;5033302;28;20386;-67
2021/09/02 07:19:40;;;;;;;10.10;2.92;;;26.60;49.40;;;;;;5033150;28;20025;-66
2021/09/02 07:22:06;;;;;;;8.43;2.67;;;26.50;49.30;;;;;;5033422;28;20458;-66
2021/09/02 07:24:31;;;;;;;10.95;3.30;;;26.40;49.50;;;;;;5032813;28;20108;-65
2021/09/02 07:26:57;;;;;;;7.90;3.05;;;26.20;49.50;;;;;;5033006;28;20036;-66
2021/09/02 07:29:23;;;;;;;12.43;3.50;;;26.10;49.60;;;;;;5032675;28;20037;-66
2021/09/02 07:31:49;;;;;;;10.27;3.50;;;26.10;49.70;;;;;;5032810;28;20086;-67
2021/09/02 07:34:14;;;;;;;13.95;3.63;;;26.10;51.00;;;;;;5032850;28;20029;-67
2021/09/02 07:36:40;;;;;;;6.72;2.90;;;26.10;50.90;;;;;;5032900;28;20026;-67
2021/09/02 07:39:07;;;;;;;8.75;3.50;;;26.10;51.10;;;;;;5032828;28;20024;-68
2021/09/02 07:41:33;;;;;;;9.88;3.28;;;26.10;51.10;;;;;;5032862;28;20057;-68
2021/09/02 07:43:59;;;;;;;9.57;3.65;;;26.10;50.70;;;;;;5032892;28;20053;-67
2021/09/02 07:46:28;;;;;;;9.02;3.10;;;26.10;51.10;;;;;;5033098;28;20075;-68
2021/09/02 07:49:02;;;;;;;8.23;3.10;;;26.10;50.70;;;;;;5033533;28;20052;-68
2021/09/02 07:51:28;;;;;;;11.50;3.58;;;26.10;49.90;;;;;;5033417;28;20092;-67
2021/09/02 07:53:54;;;;;;;11.13;3.80;;;26.10;51.30;;;;;;5032568;28;20515;-67
2021/09/02 07:56:19;;;;;;;10.05;3.47;;;26.10;51.20;;;;;;5032350;28;20105;-67
2021/09/02 07:58:45;;;;;;;36.10;21.63;;;26.10;51.10;;;;;;5032463;28;20017;-68
2021/09/02 08:01:13;;;;;;;14.18;8.68;;;26.10;50.40;;;;;;5032090;28;20044;-69
2021/09/02 08:03:41;;;;;;;6.43;3.40;;;26.10;50.00;;;;;;5036653;28;20026;-67
2021/09/02 08:06:07;;;;;;;9.43;3.80;;;26.00;49.80;;;;;;5036229;28;20064;-68
2021/09/02 08:08:33;;;;;;;8.50;3.15;;;25.90;50.10;;;;;;5036569;28;20017;-67
2021/09/02 08:10:59;;;;;;;6.60;2.70;;;25.90;50.20;;;;;;5036310;28;20049;-67
2021/09/02 08:13:25;;;;;;;9.90;3.08;;;25.90;50.20;;;;;;5036313;28;20104;-66
2021/09/02 08:15:51;;;;;;;10.80;3.03;;;25.90;50.20;;;;;;5018756;28;20459;-66
2021/09/02 08:18:16;;;;;;;11.95;3.80;;;25.90;50.50;;;;;;5035847;28;20463;-67
2021/09/02 08:20:42;;;;;;;11.55;3.38;;;25.90;50.40;;;;;;5036031;28;20471;-67
2021/09/02 08:23:08;;;;;;;12.85;3.30;;;26.10;50.70;;;;;;5036085;28;20029;-67
2021/09/02 08:25:34;;;;;;;10.10;3.05;;;26.20;50.50;;;;;;5036187;28;20037;-66
2021/09/02 08:28:01;;;;;;;12.85;3.30;;;26.30;50.30;;;;;;5036322;28;20022;-67
2021/09/02 08:30:28;;;;;;;11.07;2.88;;;26.30;49.90;;;;;;5036028;28;20029;-67
2021/09/02 08:32:54;;;;;;;8.27;3.20;;;26.40;50.20;;;;;;5035785;28;20013;-67
2021/09/02 08:35:27;;;;;;;7.65;3.22;;;26.40;50.80;;;;;;5035507;28;20034;-67
2021/09/02 08:37:56;;;;;;;9.25;2.92;;;26.50;49.70;;;;;;5035952;28;20069;-67
2021/09/02 08:40:32;;;;;;;8.38;2.85;;;26.50;49.80;;;;;;5035709;28;20025;-67
2021/09/02 08:42:59;;;;;;;8.52;3.22;;;26.50;49.80;;;;;;5035727;28;20117;-66
2021/09/02 08:45:27;;;;;;;15.60;4.57;;;26.50;49.80;;;;;;5035511;28;20029;-70
2021/09/02 08:47:53;;;;;;;9.02;3.80;;;26.50;49.70;;;;;;5036175;28;20406;-68
2021/09/02 08:50:23;;;;;;;11.45;3.92;;;26.60;50.00;;;;;;5035679;28;20116;-70
2021/09/02 08:52:50;;;;;;;9.30;3.50;;;26.60;49.80;;;;;;5018248;28;20025;-68
2021/09/02 08:55:16;;;;;;;12.50;3.50;;;26.60;49.60;;;;;;5035883;28;20108;-67
2021/09/02 08:57:42;;;;;;;7.47;3.60;;;26.60;49.80;;;;;;5035637;28;20025;-68
2021/09/02 09:00:10;;;;;;;18.05;4.85;;;26.60;49.80;;;;;;5035858;28;20028;-69
2021/09/02 09:02:41;;;;;;;7.15;3.20;;;26.70;49.90;;;;;;5035320;28;20068;-66
2021/09/02 09:05:12;;;;;;;6.20;2.97;;;26.70;49.40;;;;;;5034932;28;20030;-68
2021/09/02 09:07:40;;;;;;;9.15;4.85;;;26.70;49.60;;;;;;5035613;28;20433;-69
2021/09/02 09:10:17;;;;;;;9.05;3.55;;;26.80;49.50;;;;;;5035557;28;20018;-68
2021/09/02 09:12:46;;;;;;;6.97;3.15;;;26.80;49.50;;;;;;5017195;28;20041;-67
2021/09/02 09:15:20;;;;;;;41.92;6.43;;;26.80;49.60;;;;;;5035714;28;20106;-65
2021/09/02 09:17:48;;;;;;;21.17;4.53;;;26.90;49.50;;;;;;5035802;28;20139;-67
2021/09/02 09:20:20;;;;;;;13.10;3.70;;;26.90;49.90;;;;;;5035496;28;20025;-69
2021/09/02 09:22:59;;;;;;;7.88;3.10;;;26.90;49.90;;;;;;5035405;28;20033;-67
2021/09/02 09:25:26;;;;;;;8.15;3.05;;;26.90;49.60;;;;;;5035369;28;20044;-64
2021/09/02 09:27:56;;;;;;;5.40;2.70;;;27.00;49.70;;;;;;5035249;28;20022;-68
2021/09/02 09:30:22;;;;;;;60.33;9.07;;;27.00;49.60;;;;;;5035246;28;20108;-66
2021/09/02 09:32:50;;;;;;;52.92;8.88;;;27.00;49.60;;;;;;5035139;28;20475;-69
2021/09/02 09:35:36;;;;;;;15.57;3.45;;;27.00;49.30;;;;;;5034969;28;20096;-68
2021/09/02 09:38:11;;;;;;;10.52;3.30;;;27.00;49.50;;;;;;5035028;28;20091;-69
2021/09/02 09:40:45;;;;;;;9.90;2.88;;;27.10;49.50;;;;;;5017143;28;20017;-69
2021/09/02 09:43:13;;;;;;;8.80;2.90;;;27.10;49.00;;;;;;5035045;28;20031;-70
2021/09/02 09:45:40;;;;;;;13.15;4.00;;;27.10;49.40;;;;;;5034591;28;20025;-70
2021/09/02 09:48:27;;;;;;;22.27;4.15;;;27.20;49.50;;;;;;5034656;28;20044;-67
2021/09/02 09:51:11;;;;;;;13.15;3.97;;;27.30;49.10;;;;;;5034575;28;20049;-67
2021/09/02 09:53:39;;;;;;;35.80;5.32;;;27.30;49.60;;;;;;5017096;28;20025;-67
2021/09/02 09:56:06;;;;;;;7.00;2.72;;;27.30;49.20;;;;;;5034790;28;20088;-68
2021/09/02 09:58:32;;;;;;;14.77;3.75;;;27.40;48.90;;;;;;5034549;28;20033;-68
2021/09/02 10:01:01;;;;;;;17.88;4.45;;;27.40;49.00;;;;;;5017013;28;20117;-66
2021/09/02 10:03:29;;;;;;;11.23;3.80;;;27.50;49.20;;;;;;5035084;28;20509;-66
2021/09/02 10:05:58;;;;;;;9.80;2.92;;;27.50;48.80;;;;;;5034399;28;20072;-68
2021/09/02 10:08:24;;;;;;;8.38;3.50;;;27.60;48.50;;;;;;5016706;28;20025;-69
2021/09/02 10:10:51;;;;;;;8.38;3.13;;;27.70;48.40;;;;;;5034468;28;20538;-68
2021/09/02 10:13:17;;;;;;;10.35;3.33;;;27.70;48.50;;;;;;5034483;28;20049;-68
2021/09/02 10:15:43;;;;;;;9.98;3.15;;;27.80;48.30;;;;;;5034078;28;20143;-68
2021/09/02 10:18:10;;;;;;;8.15;3.00;;;27.80;48.40;;;;;;5034017;28;20021;-70
2021/09/02 10:20:38;;;;;;;8.95;3.53;;;27.80;48.40;;;;;;5034036;28;20052;-70
2021/09/02 10:23:06;;;;;;;9.95;3.28;;;27.90;48.10;;;;;;5034309;28;20474;-75
2021/09/02 10:25:34;;;;;;;9.48;3.58;;;27.90;48.30;;;;;;5015674;28;20408;-75
2021/09/02 10:28:09;;;;;;;12.80;3.50;;;27.90;48.30;;;;;;5034157;28;20029;-71
2021/09/02 10:30:44;;;;;;;9.50;3.10;;;28.00;47.20;;;;;;5015312;28;20115;-74
2021/09/02 10:33:33;;;;;;;25.17;5.13;;;28.10;47.70;;;;;;5034009;28;20510;-70
2021/09/02 10:35:59;;;;;;;8.13;2.95;;;28.20;48.00;;;;;;5033939;28;20029;-71
2021/09/02 10:38:42;;;;;;;6.60;3.30;;;28.20;47.70;;;;;;5033729;28;20019;-68
2021/09/02 10:41:09;;;;;;;18.58;4.15;;;28.20;46.40;;;;;;5034253;28;20044;-74
2021/09/02 10:43:47;;;;;;;13.68;3.80;;;28.30;48.40;;;;;;5034124;28;20411;-74
2021/09/02 10:46:30;;;;;;;10.55;3.60;;;28.40;48.10;;;;;;5033597;28;20033;-70
2021/09/02 10:49:24;;;;;;;12.27;5.07;;;28.40;46.50;;;;;;5034185;28;20036;-74
2021/09/02 10:52:00;;;;;;;9.98;3.33;;;28.60;47.40;;;;;;5034084;28;20060;-71
2021/09/02 10:54:34;;;;;;;7.47;2.90;;;28.60;46.50;;;;;;5015797;28;20026;-72
2021/09/02 10:57:05;;;;;;;12.07;3.10;;;28.70;47.40;;;;;;5033535;28;20124;-74
2021/09/02 10:59:39;;;;;;;10.25;3.10;;;28.80;47.30;;;;;;5034075;28;20379;-74
2021/09/02 11:02:29;;;;;;;12.30;3.50;;;28.80;47.00;;;;;;5016083;28;20052;-74
2021/09/02 11:05:15;;;;;;;6.97;2.47;;;28.80;46.50;;;;;;5023525;28;20037;-75
2021/09/02 11:07:48;;;;;;;13.75;3.28;;;28.90;45.90;;;;;;5033830;28;20033;-75
2021/09/02 11:10:22;;;;;;;7.80;2.78;;;28.90;45.50;;;;;;5016886;28;20025;-76
2021/09/02 11:12:59;;;;;;;6.13;2.67;;;29.00;45.90;;;;;;5015765;28;20056;-71
2021/09/02 11:15:26;;;;;;;5.57;2.72;;;29.00;47.10;;;;;;5033149;28;20061;-72
2021/09/02 11:17:58;;;;;;;8.85;2.67;;;29.00;47.00;;;;;;5032939;28;20038;-71
2021/09/02 11:20:27;;;;;;;4.65;2.28;;;29.10;45.20;;;;;;5032608;28;20382;-71
2021/09/02 11:23:14;;;;;;;8.85;2.92;;;29.20;46.70;;;;;;5032737;28;20429;-71
2021/09/02 11:25:49;;;;;;;9.65;2.75;;;29.30;44.20;;;;;;5031732;28;20514;-69
2021/09/02 11:28:18;;;;;;;5.00;2.60;;;29.40;44.20;;;;;;5032751;28;20061;-70
2021/09/02 11:30:44;;;;;;;7.43;2.95;;;29.50;46.30;;;;;;5031938;28;20033;-71
2021/09/02 11:33:11;;;;;;;5.88;3.08;;;29.50;45.90;;;;;;5032722;28;20017;-70
2021/09/02 11:35:37;;;;;;;6.60;2.70;;;29.50;45.50;;;;;;5032375;28;20504;-70
2021/09/02 11:38:06;;;;;;;7.68;2.85;;;29.50;45.90;;;;;;5032873;28;20056;-71
2021/09/02 11:40:34;;;;;;;11.55;3.20;;;29.40;43.30;;;;;;5032548;28;20021;-72
2021/09/02 11:43:00;;;;;;;10.35;2.97;;;29.50;45.60;;;;;;5032797;28;20018;-71
2021/09/02 11:45:29;;;;;;;4.38;2.10;;;29.50;45.90;;;;;;5014240;28;20051;-70
2021/09/02 11:47:55;;;;;;;5.60;2.70;;;29.60;45.10;;;;;;5032653;28;20446;-71
2021/09/02 11:50:23;;;;;;;7.05;2.70;;;29.70;45.10;;;;;;5032256;28;20090;-72
2021/09/02 11:52:53;;;;;;;7.32;2.63;;;29.80;44.40;;;;;;5032410;28;20068;-71
2021/09/02 11:55:21;;;;;;;7.22;2.42;;;29.80;44.30;;;;;;5032372;28;20433;-71
2021/09/02 11:57:55;;;;;;;6.53;2.58;;;29.90;43.80;;;;;;5032541;28;20028;-73
2021/09/02 12:00:21;;;;;;;;;;;29.90;44.60;;;;;;5033308;28;20029;-72
2021/09/02 12:02:57;;;;;;;12.80;3.15;;;30.00;44.10;;;;;;5032483;28;20454;-70
2021/09/02 12:05:35;;;;;;;9.27;2.90;;;30.10;44.50;;;;;;5032240;28;20050;-71
2021/09/02 12:08:02;;;;;;;6.55;2.50;;;30.20;44.20;;;;;;5032527;28;20025;-75
2021/09/02 12:10:28;;;;;;;8.13;2.60;;;30.30;43.90;;;;;;5032188;28;20103;-71
2021/09/02 12:12:54;;;;;;;6.90;2.60;;;30.40;43.10;;;;;;5032749;28;20038;-71
2021/09/02 12:15:24;;;;;;;136.90;19.08;;;30.40;42.70;;;;;;5032431;28;20434;-74
2021/09/02 12:18:04;;;;;;;9.52;2.92;;;30.40;44.50;;;;;;5032378;28;20057;-72
2021/09/02 12:20:30;;;;;;;6.85;2.90;;;30.40;43.00;;;;;;5032268;28;20512;-72
2021/09/02 12:22:56;;;;;;;6.00;2.60;;;30.40;42.40;;;;;;5032151;28;20017;-72
2021/09/02 12:25:22;;;;;;;5.47;2.70;;;30.50;42.00;;;;;;5032510;28;20033;-72
2021/09/02 12:27:53;;;;;;;6.50;2.50;;;30.50;41.40;;;;;;5032564;28;20029;-80
2021/09/02 12:30:47;;;;;;;19.88;4.35;;;30.60;41.60;;;;;;5015183;28;20057;-73
2021/09/02 12:33:15;;;;;;;10.90;2.83;;;30.70;41.80;;;;;;5032821;28;20068;-73
2021/09/02 12:35:44;;;;;;;11.57;2.00;;;30.80;41.00;;;;;;5014615;28;20022;-74
2021/09/02 12:38:30;;;;;;;4.00;1.95;;;30.80;38.20;;;;;;5032178;28;20048;-73
2021/09/02 12:41:17;;;;;;;4.78;1.70;;;30.80;36.50;;;;;;5004287;28;20036;-75
2021/09/02 12:44:10;;;;;;;4.82;1.80;;;30.80;36.50;;;;;;5015281;28;20026;-73
2021/09/02 12:47:27;;;;;;;4.93;2.30;;;30.90;35.20;;;;;;5015919;28;20517;-75
2021/09/02 12:49:55;;;;;;;5.95;1.90;;;30.90;36.60;;;;;;4977298;28;20111;-76